createdAt,value
2022-12-03T00:00:12.445Z,96.44
2022-12-03T00:01:07.608Z,96.54
2022-12-03T00:02:07.649Z,96.33
2022-12-03T00:03:07.762Z,96.33
2022-12-03T00:04:07.640Z,96.33
2022-12-03T00:05:07.593Z,96.44
2022-12-03T00:06:07.587Z,96.54
2022-12-03T00:07:07.576Z,96.44
2022-12-03T00:08:07.623Z,96.44
2022-12-03T00:09:07.519Z,96.54
2022-12-03T00:10:07.522Z,96.54
2022-12-03T00:11:07.527Z,96.64
2022-12-03T00:12:07.519Z,96.64
2022-12-03T00:13:07.481Z,96.64
2022-12-03T00:14:07.512Z,96.64
2022-12-03T00:15:07.471Z,96.64
2022-12-03T00:16:07.514Z,96.33
2022-12-03T00:17:07.460Z,96.23
2022-12-03T00:18:07.423Z,96.12
2022-12-03T00:19:07.466Z,96.23
2022-12-03T00:20:07.416Z,96.33
2022-12-03T00:21:07.442Z,96.12
2022-12-03T00:22:07.423Z,96.12
2022-12-03T00:23:07.376Z,96.12
2022-12-03T00:24:07.389Z,96.23
2022-12-03T00:25:07.387Z,96.33
2022-12-03T00:26:07.484Z,96.44
2022-12-03T00:27:07.345Z,96.44
2022-12-03T00:28:07.364Z,96.54
2022-12-03T00:29:07.304Z,96.54
2022-12-03T00:30:07.304Z,96.64
2022-12-03T00:31:07.317Z,96.64
2022-12-03T00:32:07.310Z,96.54
2022-12-03T00:33:07.261Z,96.23
2022-12-03T00:34:07.261Z,96.23
2022-12-03T00:35:07.273Z,96.33
2022-12-03T00:36:07.280Z,96.23
2022-12-03T00:37:07.254Z,96.23
2022-12-03T00:38:07.261Z,96.33
2022-12-03T00:39:07.204Z,96.44
2022-12-03T00:40:07.198Z,96.33
2022-12-03T00:41:07.200Z,96.33
2022-12-03T00:42:07.232Z,96.44
2022-12-03T00:43:07.153Z,96.27
2022-12-03T00:44:07.146Z,96.06
2022-12-03T00:45:07.149Z,96.06
2022-12-03T00:46:07.276Z,95.96
2022-12-03T00:47:07.248Z,95.96
2022-12-03T00:48:07.121Z,95.96
2022-12-03T00:49:07.135Z,96.06
2022-12-03T00:50:07.085Z,96.17
2022-12-03T00:51:07.073Z,95.96
2022-12-03T00:52:07.101Z,95.96
2022-12-03T00:53:07.094Z,96.17
2022-12-03T00:54:07.066Z,96.27
2022-12-03T00:55:07.044Z,96.27
2022-12-03T00:56:07.019Z,96.37
2022-12-03T00:57:07.021Z,96.37
2022-12-03T00:58:06.998Z,96.37
2022-12-03T00:59:06.983Z,96.48
2022-12-03T01:00:06.973Z,96.44
2022-12-03T01:01:06.948Z,96.44
2022-12-03T01:02:07.062Z,96.33
2022-12-03T01:03:06.949Z,96.33
2022-12-03T01:04:06.922Z,96.33
2022-12-03T01:05:07.000Z,96.33
2022-12-03T01:06:06.936Z,96.27
2022-12-03T01:07:06.928Z,95.96
2022-12-03T01:08:06.972Z,95.65
2022-12-03T01:09:06.876Z,95.75
2022-12-03T01:10:06.881Z,95.86
2022-12-03T01:11:06.855Z,95.75
2022-12-03T01:12:06.858Z,95.65
2022-12-03T01:13:06.858Z,95.75
2022-12-03T01:14:06.823Z,95.34
2022-12-03T01:15:06.819Z,95.13
2022-12-03T01:16:06.859Z,95.34
2022-12-03T01:17:06.803Z,95.44
2022-12-03T01:18:06.781Z,95.75
2022-12-03T01:19:06.762Z,96.06
2022-12-03T01:20:06.741Z,96.17
2022-12-03T01:21:06.748Z,96.17
2022-12-03T01:22:06.739Z,96.17
2022-12-03T01:23:06.711Z,96.17
2022-12-03T01:24:06.707Z,96.17
2022-12-03T01:25:06.724Z,95.96
2022-12-03T01:26:06.682Z,95.38
2022-12-03T01:27:06.699Z,95.17
2022-12-03T01:28:06.668Z,95.48
2022-12-03T01:29:06.639Z,95.59
2022-12-03T01:30:06.703Z,95.69
2022-12-03T01:31:06.688Z,95.79
2022-12-03T01:32:06.643Z,95.90
2022-12-03T01:33:06.606Z,95.59
2022-12-03T01:34:06.599Z,95.38
2022-12-03T01:35:06.582Z,95.38
2022-12-03T01:36:06.572Z,95.17
2022-12-03T01:37:06.705Z,94.76
2022-12-03T01:38:06.574Z,94.90
2022-12-03T01:39:06.565Z,94.80
2022-12-03T01:40:06.541Z,95.01
2022-12-03T01:41:11.555Z,95.11
2022-12-03T01:42:06.539Z,95.11
2022-12-03T01:43:06.499Z,95.21
2022-12-03T01:44:06.483Z,95.38
2022-12-03T01:45:06.476Z,95.48
2022-12-03T01:46:06.505Z,95.28
2022-12-03T01:47:06.549Z,95.17
2022-12-03T01:48:06.455Z,94.70
2022-12-03T01:49:06.526Z,94.59
2022-12-03T01:50:06.437Z,94.80
2022-12-03T01:51:06.427Z,94.80
2022-12-03T01:52:06.453Z,94.70
2022-12-03T01:53:06.422Z,94.80
2022-12-03T01:54:06.384Z,94.90
2022-12-03T01:55:06.371Z,95.01
2022-12-03T01:56:06.350Z,94.90
2022-12-03T01:57:06.390Z,95.11
2022-12-03T01:58:06.334Z,95.11
2022-12-03T01:59:06.323Z,95.01
2022-12-03T02:00:06.344Z,95.01
2022-12-03T02:01:06.312Z,94.70
2022-12-03T02:02:06.440Z,94.80
2022-12-03T02:03:06.309Z,94.80
2022-12-03T02:04:06.352Z,94.90
2022-12-03T02:05:06.261Z,95.11
2022-12-03T02:06:06.248Z,94.90
2022-12-03T02:07:06.272Z,94.28
2022-12-03T02:08:06.310Z,94.28
2022-12-03T02:09:06.219Z,94.12
2022-12-03T02:10:06.276Z,94.32
2022-12-03T02:11:06.206Z,94.74
2022-12-03T02:12:06.217Z,95.05
2022-12-03T02:13:06.194Z,94.95
2022-12-03T02:14:06.195Z,94.53
2022-12-03T02:15:06.201Z,94.22
2022-12-03T02:16:06.263Z,93.91
2022-12-03T02:17:06.184Z,94.12
2022-12-03T02:18:06.206Z,94.22
2022-12-03T02:19:06.111Z,94.32
2022-12-03T02:20:06.100Z,94.43
2022-12-03T02:21:06.111Z,94.22
2022-12-03T02:22:06.086Z,94.22
2022-12-03T02:23:06.132Z,94.43
2022-12-03T02:24:06.062Z,94.53
2022-12-03T02:25:06.080Z,94.53
2022-12-03T02:26:06.038Z,94.74
2022-12-03T02:27:06.030Z,94.53
2022-12-03T02:28:06.130Z,94.32
2022-12-03T02:29:06.052Z,94.12
2022-12-03T02:30:05.994Z,93.85
2022-12-03T02:31:06.050Z,93.95
2022-12-03T02:32:05.960Z,94.16
2022-12-03T02:33:05.979Z,94.32
2022-12-03T02:34:05.941Z,93.74
2022-12-03T02:35:05.967Z,93.54
2022-12-03T02:36:05.935Z,93.74
2022-12-03T02:37:05.971Z,94.06
2022-12-03T02:38:05.965Z,94.37
2022-12-03T02:39:05.944Z,94.43
2022-12-03T02:40:05.919Z,94.43
2022-12-03T02:41:05.885Z,94.53
2022-12-03T02:42:05.858Z,94.32
2022-12-03T02:43:05.956Z,94.22
2022-12-03T02:44:05.838Z,94.06
2022-12-03T02:45:06.055Z,93.64
2022-12-03T02:46:05.824Z,93.54
2022-12-03T02:47:05.845Z,93.74
2022-12-03T02:48:05.879Z,93.95
2022-12-03T02:49:05.784Z,94.16
2022-12-03T02:50:05.822Z,94.26
2022-12-03T02:51:07.227Z,93.74
2022-12-03T02:52:05.749Z,93.54
2022-12-03T02:53:05.757Z,93.12
2022-12-03T02:54:05.749Z,93.27
2022-12-03T02:55:05.734Z,93.05
2022-12-03T02:56:05.718Z,93.48
2022-12-03T02:57:05.733Z,93.68
2022-12-03T02:58:05.707Z,93.68
2022-12-03T02:59:05.694Z,93.68
2022-12-03T03:00:05.741Z,94.10
2022-12-03T03:01:05.968Z,93.89
2022-12-03T03:02:05.724Z,93.99
2022-12-03T03:03:05.823Z,94.10
2022-12-03T03:04:05.649Z,94.26
2022-12-03T03:05:05.622Z,94.16
2022-12-03T03:06:05.600Z,94.16
2022-12-03T03:07:05.595Z,93.89
2022-12-03T03:08:05.775Z,93.48
2022-12-03T03:09:05.577Z,93.58
2022-12-03T03:10:05.563Z,93.27
2022-12-03T03:11:05.554Z,93.37
2022-12-03T03:12:05.533Z,93.16
2022-12-03T03:13:05.538Z,93.48
2022-12-03T03:14:05.516Z,93.68
2022-12-03T03:15:05.530Z,93.37
2022-12-03T03:16:05.536Z,93.79
2022-12-03T03:17:05.482Z,93.79
2022-12-03T03:18:05.493Z,93.48
2022-12-03T03:19:05.477Z,93.68
2022-12-03T03:20:11.972Z,93.48
2022-12-03T03:21:05.454Z,93.62
2022-12-03T03:22:05.425Z,93.52
2022-12-03T03:23:05.432Z,93.62
2022-12-03T03:24:05.412Z,93.83
2022-12-03T03:25:05.418Z,93.93
2022-12-03T03:26:05.416Z,93.73
2022-12-03T03:27:05.375Z,93.52
2022-12-03T03:28:05.419Z,93.41
2022-12-03T03:29:05.365Z,93.52
2022-12-03T03:30:05.398Z,93.83
2022-12-03T03:31:05.326Z,94.04
2022-12-03T03:32:05.426Z,93.83
2022-12-03T03:33:05.331Z,93.52
2022-12-03T03:34:05.305Z,92.89
2022-12-03T03:35:05.380Z,93.10
2022-12-03T03:36:05.280Z,93.41
2022-12-03T03:37:05.333Z,93.83
2022-12-03T03:38:05.264Z,93.73
2022-12-03T03:39:05.268Z,93.73
2022-12-03T03:40:05.255Z,93.62
2022-12-03T03:41:05.252Z,93.62
2022-12-03T03:42:05.292Z,93.73
2022-12-03T03:43:05.224Z,93.93
2022-12-03T03:44:05.222Z,94.04
2022-12-03T03:45:05.226Z,94.35
2022-12-03T03:46:05.254Z,94.35
2022-12-03T03:47:05.220Z,94.35
2022-12-03T03:48:05.222Z,93.83
2022-12-03T03:49:05.137Z,93.83
2022-12-03T03:50:05.119Z,93.93
2022-12-03T03:51:05.273Z,93.52
2022-12-03T03:52:05.137Z,93.24
2022-12-03T03:53:05.105Z,93.14
2022-12-03T03:54:05.088Z,93.04
2022-12-03T03:55:05.087Z,93.24
2022-12-03T03:56:05.087Z,93.56
2022-12-03T03:57:05.102Z,93.35
2022-12-03T03:58:05.123Z,93.56
2022-12-03T03:59:05.046Z,93.56
2022-12-03T04:00:05.028Z,93.77
2022-12-03T04:01:05.084Z,94.08
2022-12-03T04:02:04.999Z,93.46
2022-12-03T04:03:05.039Z,93.77
2022-12-03T04:04:04.996Z,94.08
2022-12-03T04:05:04.992Z,94.29
2022-12-03T04:06:04.951Z,93.98
2022-12-03T04:07:04.950Z,94.08
2022-12-03T04:08:05.159Z,93.98
2022-12-03T04:09:05.015Z,93.87
2022-12-03T04:10:04.983Z,93.98
2022-12-03T04:11:04.898Z,94.18
2022-12-03T04:12:04.920Z,93.66
2022-12-03T04:13:04.890Z,93.77
2022-12-03T04:14:04.869Z,93.66
2022-12-03T04:15:04.857Z,93.46
2022-12-03T04:16:04.889Z,93.04
2022-12-03T04:17:04.872Z,93.08
2022-12-03T04:18:04.838Z,92.97
2022-12-03T04:19:04.826Z,92.87
2022-12-03T04:20:04.803Z,93.18
2022-12-03T04:21:04.798Z,93.60
2022-12-03T04:22:04.835Z,93.50
2022-12-03T04:23:04.817Z,93.18
2022-12-03T04:24:04.768Z,93.40
2022-12-03T04:25:04.740Z,93.29
2022-12-03T04:26:04.736Z,93.81
2022-12-03T04:27:04.793Z,93.40
2022-12-03T04:28:04.800Z,93.50
2022-12-03T04:29:04.715Z,93.81
2022-12-03T04:30:04.704Z,94.12
2022-12-03T04:31:04.706Z,94.33
2022-12-03T04:32:04.740Z,94.54
2022-12-03T04:33:04.714Z,94.54
2022-12-03T04:34:04.644Z,94.39
2022-12-03T04:35:04.711Z,94.54
2022-12-03T04:36:04.634Z,93.50
2022-12-03T04:37:04.624Z,93.50
2022-12-03T04:38:04.659Z,93.81
2022-12-03T04:39:04.585Z,94.02
2022-12-03T04:40:04.585Z,93.91
2022-12-03T04:41:04.630Z,93.91
2022-12-03T04:42:04.556Z,94.33
2022-12-03T04:43:04.598Z,94.43
2022-12-03T04:44:04.607Z,94.43
2022-12-03T04:45:04.608Z,94.64
2022-12-03T04:46:04.680Z,94.64
2022-12-03T04:47:04.548Z,94.43
2022-12-03T04:48:04.550Z,93.91
2022-12-03T04:49:04.510Z,93.91
2022-12-03T04:50:04.495Z,94.02
2022-12-03T04:51:04.470Z,93.85
2022-12-03T04:52:04.469Z,93.96
2022-12-03T04:53:04.519Z,94.12
2022-12-03T04:54:04.437Z,94.43
2022-12-03T04:55:04.433Z,94.75
2022-12-03T04:56:04.463Z,94.85
2022-12-03T04:57:04.423Z,94.85
2022-12-03T04:58:04.406Z,94.96
2022-12-03T04:59:04.374Z,94.64
2022-12-03T05:00:04.365Z,94.12
2022-12-03T05:01:04.481Z,94.23
2022-12-03T05:02:04.470Z,94.54
2022-12-03T05:03:04.428Z,94.27
2022-12-03T05:04:04.330Z,93.85
2022-12-03T05:05:04.403Z,93.85
2022-12-03T05:06:04.365Z,94.17
2022-12-03T05:07:04.302Z,94.48
2022-12-03T05:08:04.381Z,94.37
2022-12-03T05:09:04.316Z,94.37
2022-12-03T05:10:04.252Z,94.27
2022-12-03T05:11:04.270Z,94.27
2022-12-03T05:12:04.240Z,94.27
2022-12-03T05:13:04.228Z,94.27
2022-12-03T05:14:04.236Z,94.17
2022-12-03T05:15:04.233Z,94.37
2022-12-03T05:16:04.222Z,94.48
2022-12-03T05:17:04.235Z,94.69
2022-12-03T05:18:04.170Z,94.69
2022-12-03T05:19:04.241Z,94.69
2022-12-03T05:20:04.300Z,94.58
2022-12-03T05:21:04.188Z,94.69
2022-12-03T05:22:04.155Z,94.69
2022-12-03T05:23:04.164Z,94.37
2022-12-03T05:24:04.135Z,94.17
2022-12-03T05:25:04.143Z,94.27
2022-12-03T05:26:04.090Z,94.37
2022-12-03T05:27:04.077Z,94.69
2022-12-03T05:28:04.063Z,94.69
2022-12-03T05:29:04.092Z,94.06
2022-12-03T05:30:04.064Z,93.96
2022-12-03T05:31:04.080Z,93.85
2022-12-03T05:32:04.065Z,94.06
2022-12-03T05:33:04.067Z,94.27
2022-12-03T05:34:04.014Z,94.06
2022-12-03T05:35:04.018Z,94.17
2022-12-03T05:36:03.997Z,93.96
2022-12-03T05:37:03.983Z,94.17
2022-12-03T05:38:03.968Z,94.37
2022-12-03T05:39:04.060Z,94.58
2022-12-03T05:40:03.990Z,94.69
2022-12-03T05:41:03.965Z,94.79
2022-12-03T05:42:03.914Z,94.37
2022-12-03T05:43:03.954Z,94.27
2022-12-03T05:44:03.912Z,94.06
2022-12-03T05:45:03.944Z,94.17
2022-12-03T05:46:04.055Z,94.37
2022-12-03T05:47:03.874Z,94.58
2022-12-03T05:48:03.845Z,94.58
2022-12-03T05:49:03.906Z,94.69
2022-12-03T05:50:03.828Z,93.85
2022-12-03T05:51:03.841Z,93.79
2022-12-03T05:52:03.813Z,94.10
2022-12-03T05:53:03.794Z,94.10
2022-12-03T05:54:03.803Z,94.21
2022-12-03T05:55:03.773Z,94.42
2022-12-03T05:56:03.791Z,94.00
2022-12-03T05:57:03.775Z,94.42
2022-12-03T05:58:03.788Z,94.73
2022-12-03T05:59:03.767Z,94.73
2022-12-03T06:00:03.725Z,94.42
2022-12-03T06:01:03.717Z,94.42
2022-12-03T06:02:03.767Z,94.00
2022-12-03T06:03:03.830Z,93.79
2022-12-03T06:04:03.810Z,94.10
2022-12-03T06:05:03.696Z,94.21
2022-12-03T06:06:03.653Z,94.21
2022-12-03T06:07:03.682Z,94.31
2022-12-03T06:08:03.735Z,94.52
2022-12-03T06:09:03.634Z,94.31
2022-12-03T06:10:03.617Z,94.10
2022-12-03T06:11:03.609Z,93.90
2022-12-03T06:12:03.608Z,93.79
2022-12-03T06:13:03.591Z,93.69
2022-12-03T06:14:03.618Z,93.90
2022-12-03T06:15:03.587Z,94.10
2022-12-03T06:16:03.617Z,94.42
2022-12-03T06:17:03.547Z,94.37
2022-12-03T06:18:03.546Z,94.37
2022-12-03T06:19:03.575Z,94.48
2022-12-03T06:20:03.554Z,94.10
2022-12-03T06:21:03.489Z,93.90
2022-12-03T06:22:03.485Z,93.85
2022-12-03T06:23:03.474Z,94.17
2022-12-03T06:24:03.522Z,94.27
2022-12-03T06:25:06.575Z,94.37
2022-12-03T06:26:03.443Z,94.27
2022-12-03T06:27:03.452Z,94.37
2022-12-03T06:28:03.524Z,94.37
2022-12-03T06:29:03.571Z,94.17
2022-12-03T06:30:03.482Z,94.27
2022-12-03T06:31:03.467Z,94.17
2022-12-03T06:32:03.385Z,93.75
2022-12-03T06:33:03.387Z,93.59
2022-12-03T06:34:03.408Z,93.48
2022-12-03T06:35:03.370Z,93.48
2022-12-03T06:36:03.413Z,93.37
2022-12-03T06:37:03.358Z,93.69
2022-12-03T06:38:03.304Z,93.90
2022-12-03T06:39:03.356Z,94.10
2022-12-03T06:40:03.316Z,94.21
2022-12-03T06:41:03.304Z,94.31
2022-12-03T06:42:03.312Z,94.31
2022-12-03T06:43:03.262Z,94.10
2022-12-03T06:44:03.262Z,93.79
2022-12-03T06:45:03.233Z,94.00
2022-12-03T06:46:03.259Z,94.21
2022-12-03T06:47:03.288Z,94.37
2022-12-03T06:48:03.209Z,94.48
2022-12-03T06:49:03.231Z,94.17
2022-12-03T06:50:03.191Z,93.85
2022-12-03T06:51:03.195Z,93.96
2022-12-03T06:52:03.201Z,93.96
2022-12-03T06:53:03.149Z,94.17
2022-12-03T06:54:03.187Z,94.06
2022-12-03T06:55:03.163Z,94.17
2022-12-03T06:56:03.181Z,94.27
2022-12-03T06:57:03.235Z,94.37
2022-12-03T06:58:03.156Z,94.17
2022-12-03T06:59:03.117Z,94.06
2022-12-03T07:00:03.171Z,93.75
2022-12-03T07:01:03.086Z,93.75
2022-12-03T07:02:03.123Z,93.90
2022-12-03T07:03:03.150Z,93.48
2022-12-03T07:04:03.104Z,93.69
2022-12-03T07:05:03.043Z,94.00
2022-12-03T07:06:03.034Z,94.10
2022-12-03T07:07:03.046Z,94.00
2022-12-03T07:08:03.118Z,94.00
2022-12-03T07:09:02.998Z,94.10
2022-12-03T07:10:02.964Z,94.10
2022-12-03T07:11:02.963Z,93.90
2022-12-03T07:12:03.034Z,94.00
2022-12-03T07:13:02.942Z,94.31
2022-12-03T07:14:05.529Z,94.37
2022-12-03T07:15:02.934Z,94.48
2022-12-03T07:16:02.993Z,94.58
2022-12-03T07:17:02.918Z,94.58
2022-12-03T07:18:02.936Z,94.58
2022-12-03T07:19:02.877Z,94.48
2022-12-03T07:20:02.874Z,94.27
2022-12-03T07:21:02.857Z,94.27
2022-12-03T07:22:02.885Z,94.17
2022-12-03T07:23:02.894Z,93.96
2022-12-03T07:24:02.861Z,93.96
2022-12-03T07:25:02.840Z,94.06
2022-12-03T07:26:02.802Z,93.96
2022-12-03T07:27:02.817Z,94.06
2022-12-03T07:28:02.808Z,94.17
2022-12-03T07:29:02.798Z,94.27
2022-12-03T07:30:02.759Z,93.65
2022-12-03T07:31:02.844Z,93.48
2022-12-03T07:32:02.816Z,93.69
2022-12-03T07:33:02.733Z,93.69
2022-12-03T07:34:02.827Z,93.90
2022-12-03T07:35:02.716Z,93.90
2022-12-03T07:36:02.694Z,93.79
2022-12-03T07:37:02.687Z,93.79
2022-12-03T07:38:02.683Z,93.90
2022-12-03T07:39:02.694Z,94.00
2022-12-03T07:40:02.655Z,94.21
2022-12-03T07:41:02.641Z,94.21
2022-12-03T07:42:02.633Z,94.21
2022-12-03T07:43:02.603Z,94.21
2022-12-03T07:44:02.654Z,94.31
2022-12-03T07:45:02.631Z,94.27
2022-12-03T07:46:02.579Z,94.17
2022-12-03T07:47:02.663Z,94.17
2022-12-03T07:48:02.556Z,93.96
2022-12-03T07:49:02.618Z,94.17
2022-12-03T07:50:02.534Z,94.06
2022-12-03T07:51:02.528Z,94.06
2022-12-03T07:52:02.557Z,94.27
2022-12-03T07:53:02.587Z,94.17
2022-12-03T07:54:02.587Z,93.96
2022-12-03T07:55:02.552Z,93.96
2022-12-03T07:56:02.512Z,93.96
2022-12-03T07:57:02.479Z,93.75
2022-12-03T07:58:02.454Z,93.75
2022-12-03T07:59:02.479Z,93.65
2022-12-03T08:00:02.431Z,93.75
2022-12-03T08:01:02.548Z,93.75
2022-12-03T08:02:02.724Z,93.65
2022-12-03T08:03:02.535Z,93.65
2022-12-03T08:04:02.488Z,93.65
2022-12-03T08:05:02.464Z,93.75
2022-12-03T08:06:02.545Z,93.65
2022-12-03T08:07:02.404Z,93.75
2022-12-03T08:08:02.438Z,93.75
2022-12-03T08:09:02.358Z,93.75
2022-12-03T08:10:02.342Z,93.75
2022-12-03T08:11:02.336Z,93.75
2022-12-03T08:12:02.305Z,93.44
2022-12-03T08:13:02.289Z,93.33
2022-12-03T08:14:02.313Z,92.91
2022-12-03T08:15:02.285Z,93.02
2022-12-03T08:16:02.369Z,93.44
2022-12-03T08:17:02.258Z,93.54
2022-12-03T08:18:02.265Z,93.75
2022-12-03T08:19:02.268Z,93.54
2022-12-03T08:20:02.212Z,93.33
2022-12-03T08:21:02.217Z,92.81
2022-12-03T08:22:02.187Z,92.91
2022-12-03T08:23:02.199Z,93.12
2022-12-03T08:24:02.188Z,93.44
2022-12-03T08:25:02.163Z,93.54
2022-12-03T08:26:02.186Z,93.75
2022-12-03T08:27:02.143Z,93.50
2022-12-03T08:28:02.214Z,93.40
2022-12-03T08:29:02.207Z,93.40
2022-12-03T08:30:02.155Z,93.08
2022-12-03T08:31:02.083Z,92.77
2022-12-03T08:32:02.281Z,92.66
2022-12-03T08:33:02.111Z,92.60
2022-12-03T08:34:02.059Z,92.50
2022-12-03T08:35:02.063Z,92.60
2022-12-03T08:36:02.053Z,92.81
2022-12-03T08:37:02.048Z,92.71
2022-12-03T08:38:02.016Z,92.77
2022-12-03T08:39:02.023Z,93.08
2022-12-03T08:40:02.036Z,93.08
2022-12-03T08:41:01.986Z,92.97
2022-12-03T08:42:01.969Z,92.87
2022-12-03T08:43:01.970Z,92.35
2022-12-03T08:44:01.951Z,92.35
2022-12-03T08:45:01.967Z,92.14
2022-12-03T08:46:02.032Z,92.25
2022-12-03T08:47:01.930Z,92.14
2022-12-03T08:48:01.921Z,92.25
2022-12-03T08:49:01.917Z,92.35
2022-12-03T08:50:01.907Z,92.14
2022-12-03T08:51:01.872Z,92.25
2022-12-03T08:52:01.858Z,92.46
2022-12-03T08:53:01.862Z,92.35
2022-12-03T08:54:02.538Z,92.31
2022-12-03T08:55:01.854Z,92.21
2022-12-03T08:56:01.828Z,92.10
2022-12-03T08:57:01.823Z,92.52
2022-12-03T08:58:01.803Z,91.89
2022-12-03T08:59:01.789Z,91.89
2022-12-03T09:00:01.796Z,92.10
2022-12-03T09:01:01.800Z,92.31
2022-12-03T09:02:01.756Z,92.41
2022-12-03T09:03:01.765Z,92.31
2022-12-03T09:04:01.888Z,91.58
2022-12-03T09:05:01.743Z,91.58
2022-12-03T09:06:01.714Z,91.37
2022-12-03T09:07:01.734Z,91.27
2022-12-03T09:08:01.788Z,91.47
2022-12-03T09:09:06.536Z,91.68
2022-12-03T09:10:01.707Z,91.16
2022-12-03T09:11:01.667Z,91.27
2022-12-03T09:12:01.666Z,91.47
2022-12-03T09:13:01.642Z,91.53
2022-12-03T09:14:01.633Z,91.53
2022-12-03T09:15:01.709Z,91.43
2022-12-03T09:16:01.604Z,91.43
2022-12-03T09:17:01.664Z,91.22
2022-12-03T09:18:01.588Z,91.28
2022-12-03T09:19:01.604Z,91.39
2022-12-03T09:20:01.591Z,90.87
2022-12-03T09:21:01.569Z,90.35
2022-12-03T09:22:01.546Z,90.66
2022-12-03T09:23:01.525Z,90.35
2022-12-03T09:24:01.517Z,90.35
2022-12-03T09:25:01.541Z,90.39
2022-12-03T09:26:01.512Z,90.39
2022-12-03T09:27:01.516Z,90.60
2022-12-03T09:28:01.475Z,90.39
2022-12-03T09:29:01.472Z,90.25
2022-12-03T09:30:01.481Z,90.25
2022-12-03T09:31:01.448Z,90.66
2022-12-03T09:32:01.498Z,90.77
2022-12-03T09:33:01.423Z,90.87
2022-12-03T09:34:01.424Z,90.87
2022-12-03T09:35:01.421Z,90.77
2022-12-03T09:36:01.392Z,90.14
2022-12-03T09:37:01.376Z,90.35
2022-12-03T09:38:01.372Z,90.41
2022-12-03T09:39:01.355Z,90.41
2022-12-03T09:40:01.367Z,90.41
2022-12-03T09:41:01.335Z,90.52
2022-12-03T09:42:01.341Z,90.31
2022-12-03T09:43:01.327Z,90.52
2022-12-03T09:44:05.591Z,90.52
2022-12-03T09:45:01.319Z,90.10
2022-12-03T09:46:01.338Z,90.10
2022-12-03T09:47:01.273Z,89.89
2022-12-03T09:48:01.270Z,89.95
2022-12-03T09:49:01.247Z,89.75
2022-12-03T09:50:01.260Z,89.54
2022-12-03T09:51:01.222Z,89.43
2022-12-03T09:52:01.230Z,89.43
2022-12-03T09:53:01.222Z,89.54
2022-12-03T09:54:01.191Z,89.54
2022-12-03T09:55:01.216Z,89.75
2022-12-03T09:56:01.184Z,89.75
2022-12-03T09:57:01.164Z,89.85
2022-12-03T09:58:01.154Z,89.64
2022-12-03T09:59:01.143Z,89.12
2022-12-03T10:00:01.143Z,89.12
2022-12-03T10:01:01.172Z,88.85
2022-12-03T10:02:01.226Z,89.17
2022-12-03T10:03:01.103Z,88.96
2022-12-03T10:04:01.128Z,89.17
2022-12-03T10:05:01.202Z,89.37
2022-12-03T10:06:01.074Z,89.69
2022-12-03T10:07:01.054Z,89.58
2022-12-03T10:08:01.101Z,89.54
2022-12-03T10:09:01.036Z,89.43
2022-12-03T10:10:01.034Z,89.54
2022-12-03T10:11:01.021Z,89.54
2022-12-03T10:12:01.001Z,89.75
2022-12-03T10:13:00.995Z,89.85
2022-12-03T10:14:00.975Z,89.33
2022-12-03T10:15:00.985Z,89.12
2022-12-03T10:16:00.958Z,89.54
2022-12-03T10:17:01.053Z,89.23
2022-12-03T10:18:00.947Z,88.92
2022-12-03T10:19:00.940Z,89.12
2022-12-03T10:20:00.929Z,89.23
2022-12-03T10:21:00.914Z,89.43
2022-12-03T10:22:00.902Z,88.92
2022-12-03T10:23:00.885Z,88.71
2022-12-03T10:24:00.885Z,88.92
2022-12-03T10:25:00.880Z,88.71
2022-12-03T10:26:00.858Z,88.29
2022-12-03T10:27:00.860Z,88.50
2022-12-03T10:28:00.853Z,88.81
2022-12-03T10:29:00.822Z,88.50
2022-12-03T10:30:00.828Z,88.50
2022-12-03T10:31:00.878Z,88.60
2022-12-03T10:32:00.865Z,88.81
2022-12-03T10:33:00.784Z,89.12
2022-12-03T10:34:00.768Z,89.23
2022-12-03T10:35:00.773Z,88.81
2022-12-03T10:36:00.750Z,88.71
2022-12-03T10:37:00.734Z,88.29
2022-12-03T10:38:00.718Z,88.50
2022-12-03T10:39:00.719Z,88.29
2022-12-03T10:40:00.734Z,88.81
2022-12-03T10:41:00.717Z,89.33
2022-12-03T10:42:00.692Z,89.64
2022-12-03T10:43:00.675Z,89.43
2022-12-03T10:44:00.656Z,89.18
2022-12-03T10:45:00.670Z,89.08
2022-12-03T10:46:04.159Z,88.98
2022-12-03T10:47:00.873Z,88.87
2022-12-03T10:48:00.619Z,88.35
2022-12-03T10:49:00.611Z,88.46
2022-12-03T10:50:00.627Z,88.67
2022-12-03T10:51:00.586Z,88.35
2022-12-03T10:52:00.583Z,88.46
2022-12-03T10:53:00.569Z,88.98
2022-12-03T10:54:00.564Z,88.98
2022-12-03T10:55:00.573Z,88.94
2022-12-03T10:56:00.525Z,88.73
2022-12-03T10:57:00.520Z,88.62
2022-12-03T10:58:00.516Z,88.31
2022-12-03T10:59:00.490Z,88.42
2022-12-03T11:00:00.502Z,88.84
2022-12-03T11:01:00.535Z,88.94
2022-12-03T11:02:00.508Z,88.90
2022-12-03T11:03:00.460Z,88.79
2022-12-03T11:04:00.492Z,88.00
2022-12-03T11:05:00.445Z,87.48
2022-12-03T11:06:00.423Z,87.79
2022-12-03T11:07:00.409Z,88.25
2022-12-03T11:08:00.473Z,88.98
2022-12-03T11:09:05.312Z,89.29
2022-12-03T11:10:00.411Z,89.08
2022-12-03T11:11:00.374Z,88.98
2022-12-03T11:12:00.356Z,88.98
2022-12-03T11:13:00.348Z,88.98
2022-12-03T11:14:00.354Z,88.98
2022-12-03T11:15:00.334Z,89.29
2022-12-03T11:16:00.399Z,89.29
2022-12-03T11:17:00.287Z,88.56
2022-12-03T11:18:00.289Z,88.15
2022-12-03T11:19:00.282Z,88.56
2022-12-03T11:20:00.302Z,89.08
2022-12-03T11:21:00.267Z,89.08
2022-12-03T11:22:00.245Z,88.87
2022-12-03T11:23:00.238Z,89.08
2022-12-03T11:24:00.217Z,88.98
2022-12-03T11:25:00.257Z,89.18
2022-12-03T11:26:00.194Z,89.50
2022-12-03T11:27:00.230Z,89.25
2022-12-03T11:28:00.183Z,88.94
2022-12-03T11:29:00.167Z,89.15
2022-12-03T11:30:00.243Z,88.31
2022-12-03T11:31:00.258Z,88.42
2022-12-03T11:32:00.247Z,88.52
2022-12-03T11:33:00.131Z,88.31
2022-12-03T11:34:00.100Z,88.48
2022-12-03T11:35:00.150Z,88.59
2022-12-03T11:36:00.096Z,88.38
2022-12-03T11:37:01.818Z,88.28
2022-12-03T11:38:00.083Z,87.96
2022-12-03T11:39:00.080Z,88.02
2022-12-03T11:40:00.081Z,87.51
2022-12-03T11:41:00.087Z,87.30
2022-12-03T11:42:00.037Z,87.82
2022-12-03T11:43:00.023Z,86.68
2022-12-03T11:44:00.020Z,86.61
2022-12-03T11:45:00.028Z,86.93
2022-12-03T11:46:04.194Z,87.65
2022-12-03T11:47:00.131Z,88.28
2022-12-03T11:47:59.973Z,87.86
2022-12-03T11:48:59.956Z,87.76
2022-12-03T11:49:59.952Z,87.76
2022-12-03T11:50:59.932Z,88.02
2022-12-03T11:51:59.924Z,87.71
2022-12-03T11:52:59.907Z,87.40
2022-12-03T11:53:59.898Z,87.61
2022-12-03T11:54:59.920Z,87.51
2022-12-03T11:56:04.250Z,87.19
2022-12-03T11:56:59.858Z,87.47
2022-12-03T11:57:59.864Z,86.99
2022-12-03T11:58:59.856Z,86.57
2022-12-03T11:59:59.853Z,86.68
2022-12-03T12:00:59.837Z,86.57
2022-12-03T12:01:59.809Z,86.47
2022-12-03T12:02:59.846Z,86.88
2022-12-03T12:03:59.826Z,87.30
2022-12-03T12:04:59.787Z,87.19
2022-12-03T12:05:59.763Z,86.47
2022-12-03T12:06:59.753Z,86.30
2022-12-03T12:07:59.822Z,86.30
2022-12-03T12:08:59.750Z,87.13
2022-12-03T12:09:59.740Z,87.45
2022-12-03T12:10:59.729Z,86.61
2022-12-03T12:11:59.698Z,86.82
2022-12-03T12:12:59.688Z,86.82
2022-12-03T12:13:59.679Z,86.61
2022-12-03T12:14:59.678Z,87.03
2022-12-03T12:15:59.689Z,87.34
2022-12-03T12:16:59.665Z,87.24
2022-12-03T12:17:59.637Z,85.99
2022-12-03T12:18:59.619Z,86.51
2022-12-03T12:20:00.063Z,86.82
2022-12-03T12:20:59.622Z,86.82
2022-12-03T12:21:59.589Z,86.93
2022-12-03T12:22:59.585Z,86.30
2022-12-03T12:23:59.566Z,86.61
2022-12-03T12:24:59.579Z,86.86
2022-12-03T12:25:59.542Z,86.96
2022-12-03T12:26:59.545Z,86.96
2022-12-03T12:27:59.534Z,87.17
2022-12-03T12:28:59.526Z,86.96
2022-12-03T12:29:59.519Z,86.65
2022-12-03T12:30:59.555Z,86.76
2022-12-03T12:31:59.544Z,87.17
2022-12-03T12:32:59.466Z,88.00
2022-12-03T12:33:59.466Z,88.31
2022-12-03T12:34:59.473Z,87.90
2022-12-03T12:35:59.455Z,87.59
2022-12-03T12:36:59.431Z,87.17
2022-12-03T12:38:00.468Z,86.96
2022-12-03T12:38:59.407Z,87.07
2022-12-03T12:39:59.418Z,87.69
2022-12-03T12:40:59.382Z,87.79
2022-12-03T12:41:59.383Z,87.90
2022-12-03T12:42:59.361Z,87.90
2022-12-03T12:43:59.349Z,88.00
2022-12-03T12:44:59.362Z,88.10
2022-12-03T12:45:59.463Z,87.65
2022-12-03T12:46:59.347Z,87.48
2022-12-03T12:47:59.321Z,87.38
2022-12-03T12:49:00.023Z,87.59
2022-12-03T12:49:59.300Z,87.69
2022-12-03T12:50:59.276Z,87.69
2022-12-03T12:51:59.260Z,87.48